createdAt,value
2022-11-15T01:09:37.913Z,17.20
2022-11-15T01:12:23.977Z,18.50
2022-11-15T01:15:09.766Z,18.65
2022-11-15T01:17:55.915Z,18.87
2022-11-15T01:20:43.038Z,21.02
2022-11-15T01:23:28.968Z,21.80
2022-11-15T01:26:16.595Z,20.60
2022-11-15T01:29:02.421Z,21.50
2022-11-15T01:31:48.632Z,22.00
2022-11-15T01:34:34.672Z,21.85
2022-11-15T01:37:20.465Z,22.83
2022-11-15T01:40:09.820Z,21.20
2022-11-15T01:42:55.920Z,19.65
2022-11-15T01:45:41.870Z,19.62
2022-11-15T01:48:33.078Z,21.83
2022-11-15T01:51:20.504Z,20.10
2022-11-15T01:54:10.132Z,21.50
2022-11-15T01:57:05.510Z,20.95
2022-11-15T01:59:51.752Z,21.80
2022-11-15T02:02:38.603Z,22.08
2022-11-15T02:05:24.487Z,21.20
2022-11-15T02:08:20.705Z,20.90
2022-11-15T02:11:10.012Z,20.40
2022-11-15T02:13:57.524Z,21.92
2022-11-15T02:16:53.154Z,23.48
2022-11-15T02:19:56.258Z,20.93
2022-11-15T02:23:03.762Z,21.75
2022-11-15T02:26:04.816Z,26.40
2022-11-15T02:28:56.437Z,20.25
2022-11-15T02:32:05.325Z,19.77
2022-11-15T02:35:03.304Z,24.13
2022-11-15T02:38:00.649Z,18.83
2022-11-15T02:41:25.412Z,22.25
2022-11-15T02:44:16.030Z,22.20
2022-11-15T02:47:16.220Z,21.58
2022-11-15T02:50:09.137Z,22.53
2022-11-15T02:52:55.203Z,22.98
2022-11-15T02:55:51.173Z,24.48
2022-11-15T02:59:05.515Z,22.48
2022-11-15T03:02:02.449Z,25.48
2022-11-15T03:04:57.516Z,22.63
2022-11-15T03:07:49.437Z,24.37
2022-11-15T03:11:10.782Z,20.02
2022-11-15T03:14:24.175Z,21.95
2022-11-15T03:17:32.010Z,18.17
2022-11-15T03:20:19.893Z,17.43
2022-11-15T03:23:08.816Z,16.48
2022-11-15T03:25:56.402Z,15.65
2022-11-15T03:29:04.686Z,14.98
2022-11-15T03:31:58.491Z,13.02
2022-11-15T03:35:03.482Z,10.10
2022-11-15T03:38:00.915Z,11.20
2022-11-15T03:40:52.335Z,9.60
2022-11-15T03:43:47.443Z,9.77
2022-11-15T03:46:35.972Z,8.57
2022-11-15T03:49:27.239Z,11.30
2022-11-15T03:52:13.402Z,12.48
2022-11-15T03:55:04.249Z,22.17
2022-11-15T03:57:54.989Z,20.92
2022-11-15T04:00:40.844Z,19.45
2022-11-15T04:03:27.222Z,18.07
2022-11-15T04:06:13.254Z,20.23
2022-11-15T04:08:59.235Z,20.58
2022-11-15T04:11:45.087Z,19.52
2022-11-15T04:14:31.160Z,20.98
2022-11-15T04:17:16.841Z,21.30
2022-11-15T04:20:39.048Z,21.40
2022-11-15T04:23:43.919Z,21.87
2022-11-15T04:26:30.078Z,21.92
2022-11-15T04:29:34.855Z,22.10
2022-11-15T04:32:20.690Z,21.93
2022-11-15T04:35:07.089Z,20.90
2022-11-15T04:37:53.651Z,24.05
2022-11-15T04:40:39.451Z,24.48
2022-11-15T04:43:25.715Z,25.73
2022-11-15T04:46:11.563Z,25.03
2022-11-15T04:48:59.171Z,27.60
2022-11-15T04:51:45.760Z,25.27
2022-11-15T04:54:31.525Z,21.12
2022-11-15T04:57:17.457Z,23.20
2022-11-15T05:00:07.920Z,24.27
2022-11-15T05:03:12.700Z,23.33
2022-11-15T05:05:59.328Z,24.80
2022-11-15T05:08:45.337Z,22.52
2022-11-15T05:11:31.536Z,24.20
2022-11-15T05:14:17.495Z,22.30
2022-11-15T05:17:03.349Z,21.52
2022-11-15T05:19:58.854Z,22.60
2022-11-15T05:22:45.176Z,22.30
2022-11-15T05:25:31.253Z,22.00
2022-11-15T05:28:17.219Z,21.57
2022-11-15T05:31:15.139Z,21.30
2022-11-15T05:34:05.862Z,22.50
2022-11-15T05:36:51.551Z,20.90
2022-11-15T05:39:37.696Z,21.65
2022-11-15T05:42:23.725Z,17.33
2022-11-15T05:45:10.349Z,18.95
2022-11-15T05:47:57.993Z,21.12
2022-11-15T05:50:46.874Z,18.60
2022-11-15T05:53:33.387Z,22.23
2022-11-15T05:56:19.847Z,22.43
2022-11-15T05:59:05.830Z,23.27
2022-11-15T06:01:51.951Z,30.75
2022-11-15T06:04:38.678Z,26.25
2022-11-15T06:07:24.476Z,30.20
2022-11-15T06:10:10.775Z,33.03
2022-11-15T06:13:06.905Z,33.25
2022-11-15T06:15:56.640Z,32.38
2022-11-15T06:18:42.659Z,26.05
2022-11-15T06:21:31.561Z,28.30
2022-11-15T06:24:17.468Z,29.43
2022-11-15T06:27:03.485Z,28.10
2022-11-15T06:29:49.279Z,30.58
2022-11-15T06:32:35.594Z,30.15
2022-11-15T06:35:21.561Z,30.10
2022-11-15T06:38:09.722Z,31.73
2022-11-15T06:40:55.659Z,33.92
2022-11-15T06:43:41.951Z,26.17
2022-11-15T06:46:27.704Z,26.48
2022-11-15T06:49:13.595Z,26.98
2022-11-15T06:51:59.469Z,32.30
2022-11-15T06:54:45.417Z,26.23
2022-11-15T06:57:31.497Z,29.73
2022-11-15T07:00:19.555Z,29.30
2022-11-15T07:03:05.523Z,27.87
2022-11-15T07:05:54.500Z,30.80
2022-11-15T07:08:42.587Z,27.90
2022-11-15T07:11:28.242Z,27.92
2022-11-15T07:14:14.067Z,30.88
2022-11-15T07:16:59.993Z,29.73
2022-11-15T07:19:46.899Z,28.30
2022-11-15T07:22:33.676Z,28.67
2022-11-15T07:25:19.514Z,30.00
2022-11-15T07:28:05.990Z,28.23
2022-11-15T07:30:52.472Z,27.30
2022-11-15T07:33:38.581Z,30.30
2022-11-15T07:36:24.434Z,28.33
2022-11-15T07:39:10.902Z,30.52
2022-11-15T07:42:16.528Z,32.95
2022-11-15T07:45:02.366Z,30.58
2022-11-15T07:47:49.335Z,30.50
2022-11-15T07:50:35.996Z,30.95
2022-11-15T07:53:22.240Z,33.83
2022-11-15T07:56:11.085Z,34.70
2022-11-15T07:58:58.522Z,32.33
2022-11-15T08:01:44.759Z,41.20
2022-11-15T08:04:30.738Z,37.75
2022-11-15T08:07:16.826Z,32.70
2022-11-15T08:10:04.887Z,30.85
2022-11-15T08:13:04.727Z,32.03
2022-11-15T08:15:56.289Z,30.83
2022-11-15T08:18:43.726Z,34.95
2022-11-15T08:21:29.745Z,30.85
2022-11-15T08:24:16.048Z,30.73
2022-11-15T08:27:02.243Z,34.45
2022-11-15T08:29:56.788Z,29.90
2022-11-15T08:32:45.266Z,29.48
2022-11-15T08:35:31.215Z,28.52
2022-11-15T08:38:17.452Z,28.98
2022-11-15T08:41:05.457Z,29.33
2022-11-15T08:43:51.654Z,26.40
2022-11-15T08:46:37.775Z,30.17
2022-11-15T08:49:23.786Z,30.92
2022-11-15T08:52:10.211Z,26.80
2022-11-15T08:54:56.320Z,31.83
2022-11-15T08:57:42.281Z,27.63
2022-11-15T09:00:28.431Z,28.67
2022-11-15T09:03:14.376Z,31.52
2022-11-15T09:06:01.568Z,41.45
2022-11-15T09:08:48.408Z,36.70
2022-11-15T09:11:34.764Z,40.60
2022-11-15T09:14:21.000Z,46.85
2022-11-15T09:17:10.467Z,38.60
2022-11-15T09:19:56.504Z,33.47
2022-11-15T09:22:42.669Z,30.45
2022-11-15T09:25:29.706Z,28.53
2022-11-15T09:28:15.700Z,29.00
2022-11-15T09:31:02.805Z,29.25
2022-11-15T09:33:48.817Z,30.58
2022-11-15T09:36:34.924Z,26.70
2022-11-15T09:39:20.830Z,27.27
2022-11-15T09:42:12.376Z,29.08
2022-11-15T09:45:16.934Z,32.13
2022-11-15T09:48:40.616Z,28.80
2022-11-15T09:51:15.315Z,30.73
2022-11-15T09:56:46.827Z,30.33
2022-11-15T09:59:33.109Z,30.67
2022-11-15T10:02:19.199Z,28.60
2022-11-15T10:04:47.429Z,40.05
2022-11-15T10:07:19.695Z,34.17
2022-11-15T10:09:52.795Z,33.65
2022-11-15T10:12:20.285Z,32.25
2022-11-15T10:14:54.401Z,30.90
2022-11-15T10:17:43.399Z,33.22
2022-11-15T10:20:18.235Z,37.20
2022-11-15T10:22:48.745Z,34.47
2022-11-15T10:25:31.112Z,30.12
2022-11-15T10:28:17.376Z,35.10
2022-11-15T10:30:51.144Z,33.78
2022-11-15T10:33:37.358Z,33.90
2022-11-15T10:36:14.734Z,32.08
2022-11-15T10:38:51.264Z,32.45
2022-11-15T10:41:28.088Z,31.92
2022-11-15T10:44:19.960Z,32.22
2022-11-15T10:47:22.357Z,29.50
2022-11-15T10:50:00.635Z,32.15
2022-11-15T10:52:29.970Z,31.58
2022-11-15T10:55:12.006Z,33.78
2022-11-15T10:57:40.462Z,33.83
2022-11-15T11:00:21.580Z,34.57
2022-11-15T11:03:08.232Z,30.37
2022-11-15T11:05:42.589Z,32.63
2022-11-15T11:08:16.885Z,33.53
2022-11-15T11:11:00.027Z,36.78
2022-11-15T11:13:34.448Z,32.37
2022-11-15T11:16:10.901Z,32.17
2022-11-15T11:18:47.092Z,36.40
2022-11-15T11:21:32.970Z,32.53
2022-11-15T11:24:12.190Z,35.05
2022-11-15T11:26:46.096Z,35.93
2022-11-15T11:29:28.702Z,34.20
2022-11-15T11:32:15.449Z,36.47
2022-11-15T11:35:10.749Z,37.25
2022-11-15T11:37:41.645Z,37.65
2022-11-15T11:40:44.116Z,35.27
2022-11-15T11:43:19.342Z,38.35
2022-11-15T11:46:23.078Z,37.05
2022-11-15T11:49:14.081Z,38.58
2022-11-15T11:51:47.617Z,40.53
2022-11-15T11:54:26.667Z,40.77
2022-11-15T11:56:55.418Z,39.63
2022-11-15T11:59:41.649Z,40.25
2022-11-15T12:02:16.946Z,40.78
2022-11-15T12:04:49.732Z,40.65
2022-11-15T12:07:20.240Z,38.73
2022-11-15T12:10:17.366Z,40.70
2022-11-15T12:13:04.982Z,39.22
2022-11-15T12:15:38.294Z,43.63
2022-11-15T12:18:08.263Z,44.13
2022-11-15T12:20:40.625Z,52.53
2022-11-15T12:23:25.799Z,46.28
2022-11-15T12:25:54.782Z,52.08
2022-11-15T12:29:07.074Z,47.38
2022-11-15T12:31:35.392Z,49.17
2022-11-15T12:34:07.569Z,55.20
2022-11-15T12:36:44.271Z,56.33
2022-11-15T12:39:13.041Z,52.00
2022-11-15T12:41:46.086Z,56.60
2022-11-15T12:44:31.945Z,54.17
2022-11-15T12:47:03.219Z,52.40
2022-11-15T12:49:30.617Z,51.72
2022-11-15T12:51:58.025Z,50.22
2022-11-15T12:54:25.733Z,55.30
2022-11-15T12:57:05.311Z,52.67
2022-11-15T13:00:05.732Z,49.17
2022-11-15T13:02:46.265Z,51.60
2022-11-15T13:05:17.112Z,50.12
2022-11-15T13:07:44.527Z,53.05
2022-11-15T13:10:12.834Z,50.90
2022-11-15T13:12:46.528Z,55.73
2022-11-15T13:15:13.898Z,52.28
2022-11-15T13:17:52.033Z,53.55
2022-11-15T13:20:31.004Z,53.42
2022-11-15T13:23:03.387Z,50.12
2022-11-15T13:25:37.042Z,53.73
2022-11-15T13:28:22.975Z,53.20
2022-11-15T13:30:59.980Z,49.58
2022-11-15T13:33:36.653Z,53.38
2022-11-15T13:36:13.450Z,49.10
2022-11-15T13:38:42.777Z,53.20
2022-11-15T13:41:21.891Z,49.28
2022-11-15T13:43:51.566Z,47.25
2022-11-15T13:46:21.567Z,45.30
2022-11-15T13:49:01.266Z,47.95
2022-11-15T13:51:52.270Z,45.83
2022-11-15T13:54:32.263Z,41.90
2022-11-15T13:57:04.675Z,46.42
2022-11-15T13:59:37.571Z,44.90
2022-11-15T14:02:14.277Z,46.85
2022-11-15T14:04:58.102Z,43.47
2022-11-15T14:07:28.923Z,45.65
2022-11-15T14:09:57.335Z,46.53
2022-11-15T14:12:35.359Z,45.08
2022-11-15T14:15:30.425Z,50.65
2022-11-15T14:17:57.975Z,55.37
2022-11-15T14:20:33.708Z,51.85
2022-11-15T14:23:06.354Z,48.87
2022-11-15T14:25:36.104Z,48.50
2022-11-15T14:28:20.191Z,49.30
2022-11-15T14:30:51.118Z,52.23
2022-11-15T14:33:26.686Z,47.30
2022-11-15T14:35:54.412Z,49.78
2022-11-15T14:38:21.867Z,49.38
2022-11-15T14:40:49.914Z,43.25
2022-11-15T14:43:17.935Z,49.53
2022-11-15T14:45:45.380Z,46.72
2022-11-15T14:48:12.999Z,45.67
2022-11-15T14:50:41.578Z,44.95
2022-11-15T14:53:13.655Z,53.08
2022-11-15T14:55:41.592Z,44.63
2022-11-15T14:58:09.836Z,47.17
2022-11-15T15:00:39.789Z,49.42
2022-11-15T15:03:08.231Z,49.40
2022-11-15T15:05:41.967Z,50.35
2022-11-15T15:08:10.309Z,51.57
2022-11-15T15:10:43.667Z,57.97
2022-11-15T15:13:19.047Z,55.33
2022-11-15T15:15:47.135Z,60.85
2022-11-15T15:18:16.336Z,51.33
2022-11-15T15:20:46.535Z,52.97
2022-11-15T15:23:19.027Z,50.72
2022-11-15T15:25:49.706Z,47.45
2022-11-15T15:28:17.377Z,50.97
2022-11-15T15:30:44.865Z,50.10
2022-11-15T15:33:12.581Z,49.90
2022-11-15T15:35:40.094Z,53.17
2022-11-15T15:38:07.533Z,58.55
2022-11-15T15:40:35.365Z,86.45
2022-11-15T15:43:02.874Z,99.53
2022-11-15T15:45:30.900Z,80.27
2022-11-15T15:47:58.817Z,74.12
2022-11-15T15:50:27.387Z,80.97
2022-11-15T15:52:57.162Z,55.40
2022-11-15T15:55:25.292Z,60.03
2022-11-15T15:57:53.329Z,66.87
2022-11-15T16:00:24.600Z,61.17
2022-11-15T16:02:53.108Z,59.00
2022-11-15T16:05:20.807Z,58.75
2022-11-15T16:07:48.919Z,56.25
2022-11-15T16:10:30.261Z,56.47
2022-11-15T16:13:07.356Z,53.10
2022-11-15T16:15:35.981Z,54.58
2022-11-15T16:18:04.557Z,53.45
2022-11-15T16:20:38.169Z,55.40
2022-11-15T16:23:09.592Z,58.90
2022-11-15T16:25:57.740Z,55.80
2022-11-15T16:28:30.798Z,55.12
2022-11-15T16:31:03.138Z,55.90
2022-11-15T16:33:31.478Z,54.22
2022-11-15T16:35:59.254Z,58.53
2022-11-15T16:38:26.825Z,56.05
2022-11-15T16:40:54.671Z,55.35
2022-11-15T16:43:22.190Z,51.60
2022-11-15T16:45:50.784Z,54.15
2022-11-15T16:48:26.752Z,50.60
2022-11-15T16:50:58.522Z,54.17
2022-11-15T16:53:27.649Z,50.67
2022-11-15T16:55:55.673Z,52.03
2022-11-15T16:58:23.297Z,53.25
2022-11-15T17:00:55.065Z,53.17
2022-11-15T17:03:24.023Z,52.40
2022-11-15T17:05:51.898Z,49.05
2022-11-15T17:08:21.975Z,50.30
2022-11-15T17:10:49.952Z,48.45
2022-11-15T17:13:17.843Z,52.27
2022-11-15T17:15:45.345Z,52.03
2022-11-15T17:18:14.138Z,48.08
2022-11-15T17:20:43.288Z,47.45
2022-11-15T17:23:14.790Z,47.17
2022-11-15T17:25:42.974Z,50.20
2022-11-15T17:28:10.713Z,51.88
2022-11-15T17:30:43.400Z,48.13
2022-11-15T17:33:11.242Z,45.05
2022-11-15T17:35:38.715Z,48.90
2022-11-15T17:38:06.195Z,52.60
2022-11-15T17:40:34.115Z,50.30
2022-11-15T17:43:02.557Z,49.75
2022-11-15T17:45:30.155Z,48.92
2022-11-15T17:47:59.191Z,48.72
2022-11-15T17:50:26.878Z,44.47
2022-11-15T17:52:54.998Z,44.90
2022-11-15T17:55:22.770Z,40.00
2022-11-15T17:57:50.362Z,38.33
2022-11-15T18:00:20.889Z,36.88
2022-11-15T18:02:48.771Z,36.77
2022-11-15T18:05:16.266Z,36.58
2022-11-15T18:07:43.764Z,37.55
2022-11-15T18:10:11.965Z,38.13
2022-11-15T18:12:39.435Z,37.80
2022-11-15T18:15:07.313Z,39.03
2022-11-15T18:17:35.055Z,41.42
2022-11-15T18:20:04.612Z,43.80
2022-11-15T18:22:32.346Z,46.25
2022-11-15T18:25:00.137Z,46.22
2022-11-15T18:27:27.581Z,50.70
2022-11-15T18:29:57.220Z,49.42
2022-11-15T18:32:24.974Z,49.90
2022-11-15T18:34:52.454Z,47.62
2022-11-15T18:37:19.841Z,42.67
2022-11-15T18:39:52.713Z,39.50
2022-11-15T18:42:21.295Z,44.03
2022-11-15T18:44:49.036Z,44.67
2022-11-15T18:47:16.505Z,43.40
2022-11-15T18:49:44.491Z,40.70
2022-11-15T18:52:12.379Z,41.37
2022-11-15T18:54:39.806Z,42.00
2022-11-15T18:57:07.349Z,42.25
2022-11-15T18:59:35.079Z,41.40
2022-11-15T19:02:02.526Z,40.85
2022-11-15T19:04:30.084Z,39.30
2022-11-15T19:06:57.950Z,38.60
2022-11-15T19:09:31.944Z,40.60
2022-11-15T19:11:59.752Z,35.97
2022-11-15T19:14:30.379Z,35.38
2022-11-15T19:16:58.327Z,37.30
2022-11-15T19:19:28.429Z,38.75
2022-11-15T19:21:57.507Z,38.45
2022-11-15T19:24:27.082Z,39.20
2022-11-15T19:26:55.046Z,41.28
2022-11-15T19:29:22.587Z,38.07
2022-11-15T19:31:50.029Z,39.35
2022-11-15T19:34:18.095Z,41.08
2022-11-15T19:36:46.235Z,34.60
2022-11-15T19:39:15.002Z,36.75
2022-11-15T19:41:43.741Z,36.23
2022-11-15T19:44:12.307Z,31.77
2022-11-15T19:46:40.267Z,34.53
2022-11-15T19:49:10.760Z,31.62
2022-11-15T19:51:39.542Z,31.05
2022-11-15T19:54:08.988Z,33.43
2022-11-15T19:56:37.492Z,29.37
2022-11-15T19:59:05.285Z,30.90
2022-11-15T20:01:36.399Z,30.00
2022-11-15T20:04:07.096Z,26.95
2022-11-15T20:06:37.535Z,28.73
2022-11-15T20:09:05.352Z,27.83
2022-11-15T20:11:34.161Z,29.23
2022-11-15T20:14:06.347Z,37.03
2022-11-15T20:16:34.043Z,27.95
2022-11-15T20:19:01.604Z,31.33
2022-11-15T20:21:29.264Z,30.98
2022-11-15T20:23:56.959Z,29.83
2022-11-15T20:26:24.501Z,29.55
2022-11-15T20:28:52.069Z,49.80
2022-11-15T20:31:19.871Z,41.97
2022-11-15T20:33:47.639Z,37.28
2022-11-15T20:36:15.936Z,38.90
2022-11-15T20:38:44.648Z,43.78
2022-11-15T20:41:13.007Z,39.45
2022-11-15T20:43:43.404Z,46.13
2022-11-15T20:46:12.405Z,37.03
2022-11-15T20:48:40.493Z,37.55
2022-11-15T20:51:12.281Z,35.92
2022-11-15T20:53:44.914Z,37.05
2022-11-15T20:56:14.978Z,31.57
2022-11-15T20:58:44.720Z,33.38
2022-11-15T21:01:14.313Z,34.10
2022-11-15T21:03:41.952Z,37.22
2022-11-15T21:06:10.427Z,37.92
2022-11-15T21:08:56.435Z,36.17
2022-11-15T21:11:43.936Z,36.40
2022-11-15T21:14:11.519Z,35.03
2022-11-15T21:16:39.219Z,40.03
2022-11-15T21:19:07.083Z,35.47
2022-11-15T21:21:36.264Z,33.17
2022-11-15T21:24:09.002Z,31.80
2022-11-15T21:26:36.930Z,29.17
2022-11-15T21:29:05.209Z,29.25
2022-11-15T21:31:33.091Z,31.58
2022-11-15T21:34:02.522Z,28.30
2022-11-15T21:36:30.417Z,32.88
2022-11-15T21:38:58.118Z,27.90
2022-11-15T21:41:25.586Z,25.00
2022-11-15T21:43:57.686Z,24.52
2022-11-15T21:46:25.168Z,25.27
2022-11-15T21:48:52.999Z,23.48
2022-11-15T21:51:20.505Z,25.75
2022-11-15T21:53:48.053Z,21.10
2022-11-15T21:56:15.856Z,23.90
2022-11-15T21:58:43.275Z,26.57
2022-11-15T22:01:29.867Z,24.02
2022-11-15T22:03:57.631Z,24.08
2022-11-15T22:06:25.034Z,24.00
2022-11-15T22:08:52.517Z,25.62
2022-11-15T22:11:20.406Z,29.33
2022-11-15T22:13:47.803Z,26.20
2022-11-15T22:16:15.272Z,24.00
2022-11-15T22:18:43.045Z,27.90
2022-11-15T22:21:12.672Z,23.15
2022-11-15T22:23:40.722Z,25.13
2022-11-15T22:26:11.346Z,25.55
2022-11-15T22:28:39.221Z,30.10
2022-11-15T22:31:07.347Z,27.77
2022-11-15T22:33:35.822Z,28.75
2022-11-15T22:36:04.486Z,29.50
2022-11-15T22:38:32.320Z,26.77
2022-11-15T22:41:00.435Z,29.33
2022-11-15T22:43:28.286Z,31.75
2022-11-15T22:45:57.588Z,30.23
2022-11-15T22:48:30.417Z,30.37
2022-11-15T22:50:59.332Z,33.17
2022-11-15T22:53:27.546Z,30.83
2022-11-15T22:56:00.280Z,35.25
2022-11-15T22:58:29.575Z,32.58
2022-11-15T23:01:00.795Z,35.73
2022-11-15T23:03:29.196Z,32.78
2022-11-15T23:06:02.089Z,31.42
2022-11-15T23:08:32.961Z,34.35
2022-11-15T23:11:20.544Z,34.05
2022-11-15T23:14:08.171Z,34.30
2022-11-15T23:16:55.520Z,35.17
2022-11-15T23:19:43.171Z,31.42
2022-11-15T23:22:48.499Z,36.95
2022-11-15T23:25:36.145Z,32.05
2022-11-15T23:28:04.206Z,32.90
2022-11-15T23:30:54.634Z,40.55
2022-11-15T23:33:41.723Z,28.42
2022-11-15T23:36:09.387Z,34.75
2022-11-15T23:38:37.525Z,36.38
2022-11-15T23:41:06.028Z,32.53
2022-11-15T23:43:33.676Z,36.63
2022-11-15T23:46:02.028Z,41.22
2022-11-15T23:48:29.782Z,37.60
2022-11-15T23:50:57.522Z,37.65
2022-11-15T23:53:25.033Z,34.10
2022-11-15T23:56:02.993Z,40.78
2022-11-15T23:58:30.874Z,42.67
